| time (UTC) | temp C | wind direction | speed KPH | gust KPH | rain 1hr cm | rain 24hr cm | rain mn cm | humidity % | barometer mb |
| 20260504150444 | 10 | 332 | 0.0 | 3.2 | 0.00 | 2.69 | 0.05 | 97 | 1013.2 |
| 20260504141308 | 10 | 202 | 0.0 | 8.0 | 0.00 | 2.62 | 0.00 | 97 | 1013.0 |
| 20260504140327 | 10 | 320 | 0.0 | 0.0 | 0.00 | 2.62 | 0.00 | 97 | 1012.7 |
| 20260504130157 | 10 | 81 | 0.0 | 25.7 | 0.18 | 2.54 | 2.54 | 97 | 1011.9 |
| 20260504120218 | 11 | 296 | 0.0 | 12.9 | 0.08 | 1.57 | 1.60 | 97 | 1011.1 |
| 20260504081817 | 11 | 286 | 0.0 | 11.3 | 1.91 | 0.53 | 0.56 | 96 | 1007.1 |
| 20260504080835 | 11 | 301 | 1.6 | 11.3 | 0.08 | 0.51 | 0.51 | 96 | 1006.9 |
| 20260504050202 | 12 | 152 | 0.0 | 14.5 | 0.00 | 0.05 | 0.05 | 93 | 1005.4 |
| 20260504045207 | 12 | 289 | 0.0 | 0.0 | 0.00 | 0.05 | 0.05 | 91 | 1005.5 |
| 20260504043045 | 12 | 153 | 1.6 | 16.1 | 0.28 | 0.03 | 0.03 | 86 | 1005.3 |
| 20260504042106 | 13 | 216 | 0.0 | 16.1 | 0.00 | 0.00 | 0.00 | 81 | 1005.2 |
| 20260504034851 | 13 | 263 | 0.0 | 9.7 | 0.00 | 0.00 | 0.00 | 82 | 1005.1 |
| 20260504033822 | 13 | 291 | 0.0 | 20.9 | 0.00 | 0.00 | 0.00 | 83 | 1005.3 |
| 20260504032819 | 13 | 202 | 3.2 | 20.9 | 0.00 | 0.00 | 0.00 | 82 | 1005.4 |
| 20260504031828 | 13 | 328 | 4.8 | 20.9 | 0.00 | 0.00 | 0.00 | 82 | 1005.5 |
| 20260504025733 | 12 | 306 | 1.6 | 16.1 | 0.00 | 0.00 | 0.00 | 84 | 1005.4 |
| 20260504024755 | 12 | 306 | 1.6 | 25.7 | 0.00 | 0.00 | 0.00 | 84 | 1005.6 |
| 20260504023817 | 12 | 263 | 3.2 | 25.7 | 0.00 | 0.00 | 0.00 | 85 | 1005.6 |
| 20260504022805 | 12 | 221 | 3.2 | 20.9 | 0.00 | 0.00 | 0.00 | 85 | 1005.8 |
| 20260504021813 | 12 | 254 | 1.6 | 20.9 | 0.00 | 0.00 | 0.00 | 85 | 1006.0 |
| 20260504020759 | 12 | 213 | 3.2 | 16.1 | 0.00 | 0.00 | 0.00 | 86 | 1006.0 |
| 20260504014713 | 12 | 18 | 1.6 | 16.1 | 0.00 | 0.00 | 0.00 | 86 | 1006.3 |
| 20260504013702 | 12 | 218 | 1.6 | 19.3 | 0.00 | 0.00 | 0.00 | 87 | 1006.4 |
| 20260504012628 | 12 | 214 | 1.6 | 19.3 | 0.00 | 0.00 | 0.00 | 87 | 1006.4 |
| 20260504011631 | 11 | 100 | 1.6 | 16.1 | 0.00 | 0.00 | 0.00 | 88 | 1006.6 |
| 20260504010614 | 11 | 237 | 3.2 | 16.1 | 0.00 | 0.00 | 0.00 | 88 | 1006.5 |
| 20260504005618 | 11 | 199 | 1.6 | 16.1 | 0.00 | 0.00 | 0.00 | 88 | 1006.9 |
| 20260504004629 | 11 | 135 | 1.6 | 12.9 | 0.00 | 0.00 | 0.00 | 88 | 1006.6 |
| 20260504003633 | 11 | 308 | 1.6 | 16.1 | 0.00 | 0.00 | 0.00 | 89 | 1006.7 |
| 20260504002639 | 11 | 280 | 1.6 | 16.1 | 0.00 | 0.00 | 0.00 | 89 | 1006.9 |
| 20260504001605 | 10 | 22 | 1.6 | 14.5 | 0.00 | 0.03 | 0.00 | 89 | 1006.8 |
| 20260504000618 | 10 | 208 | 0.0 | 17.7 | 0.00 | 0.10 | 0.00 | 89 | 1006.8 |
| 20260503235551 | 10 | 277 | 3.2 | 17.7 | 0.00 | 0.18 | 0.00 | 89 | 1006.9 |
| 20260503234541 | 10 | 126 | 1.6 | 19.3 | 0.00 | 0.25 | 0.00 | 89 | 1007.0 |
| 20260503233537 | 10 | 282 | 3.2 | 19.3 | 0.00 | 0.25 | 0.00 | 88 | 1007.2 |
| 20260503231423 | 10 | 237 | 1.6 | 14.5 | 0.00 | 0.28 | 0.00 | 88 | 1007.3 |
| 20260503230426 | 10 | 263 | 1.6 | 20.9 | 0.00 | 0.30 | 0.00 | 87 | 1007.3 |
| 20260503225401 | 10 | 127 | 1.6 | 20.9 | 0.00 | 0.30 | 0.00 | 87 | 1007.2 |
| 20260503224413 | 10 | 304 | 3.2 | 17.7 | 0.00 | 0.30 | 0.00 | 87 | 1007.3 |
| 20260503222215 | 10 | 265 | 1.6 | 16.1 | 0.00 | 0.30 | 0.00 | 87 | 1007.4 |
| 20260503214818 | 9 | 208 | 1.6 | 14.5 | 0.00 | 0.33 | 0.00 | 89 | 1007.2 |
| 20260503213753 | 9 | 157 | 1.6 | 14.5 | 0.00 | 0.33 | 0.00 | 89 | 1007.1 |
| 20260503212743 | 8 | 320 | 1.6 | 14.5 | 0.00 | 0.33 | 0.00 | 89 | 1007.1 |
| 20260503210654 | 9 | 143 | 1.6 | 12.9 | 0.00 | 0.33 | 0.00 | 88 | 1007.2 |
| 20260503205714 | 9 | 55 | 1.6 | 12.9 | 0.00 | 0.33 | 0.00 | 88 | 1007.4 |
| 20260503204716 | 9 | 221 | 1.6 | 14.5 | 0.00 | 0.33 | 0.00 | 87 | 1007.3 |
| 20260503203726 | 9 | 241 | 1.6 | 14.5 | 0.00 | 0.33 | 0.00 | 87 | 1007.3 |
| 20260503202741 | 9 | 234 | 1.6 | 11.3 | 0.00 | 0.33 | 0.00 | 87 | 1007.4 |
| 20260503201732 | 9 | 302 | 1.6 | 14.5 | 0.00 | 0.36 | 0.00 | 86 | 1007.4 |
| 20260503200706 | 9 | 188 | 0.0 | 14.5 | 0.00 | 0.36 | 0.00 | 86 | 1007.6 |
| 20260503195703 | 9 | 155 | 0.0 | 12.9 | 0.00 | 0.43 | 0.00 | 86 | 1007.6 |
| 20260503194657 | 9 | 296 | 0.0 | 11.3 | 0.00 | 0.46 | 0.00 | 86 | 1007.5 |
| 20260503193651 | 10 | 307 | 1.6 | 11.3 | 0.00 | 0.46 | 0.00 | 85 | 1007.6 |
| 20260503191509 | 10 | 173 | 0.0 | 12.9 | 0.00 | 0.46 | 0.00 | 84 | 1007.6 |
| 20260503190506 | 10 | 312 | 1.6 | 12.9 | 0.00 | 0.46 | 0.00 | 85 | 1007.6 |
| 20260503185501 | 10 | 169 | 1.6 | 17.7 | 0.00 | 0.46 | 0.00 | 85 | 1007.7 |
| 20260503184433 | 10 | 214 | 1.6 | 17.7 | 0.00 | 0.46 | 0.00 | 85 | 1007.5 |
| 20260503183401 | 10 | 214 | 1.6 | 14.5 | 0.00 | 0.46 | 0.00 | 85 | 1007.6 |
| 20260503182406 | 10 | 185 | 1.6 | 14.5 | 0.00 | 0.46 | 0.00 | 85 | 1007.7 |
| 20260503175145 | 10 | 266 | 1.6 | 11.3 | 0.00 | 0.46 | 0.00 | 84 | 1008.1 |
| 20260503174115 | 10 | 311 | 1.6 | 11.3 | 0.00 | 0.46 | 0.00 | 84 | 1008.1 |
| 20260503173055 | 10 | 273 | 3.2 | 19.3 | 0.00 | 0.46 | 0.00 | 84 | 1008.2 |
| 20260503172112 | 10 | 237 | 1.6 | 19.3 | 0.00 | 0.46 | 0.00 | 84 | 1008.2 |
| 20260503171128 | 10 | 140 | 1.6 | 17.7 | 0.00 | 0.46 | 0.00 | 84 | 1008.2 |
| 20260503170122 | 10 | 217 | 3.2 | 17.7 | 0.00 | 0.46 | 0.00 | 83 | 1008.3 |